KANB/ANB METAR and TAF weather

Enter ICAO airport designator
Station Type Date Time Source
KANB METAR 2021/09/23 17:53 UTC NOAA

KANB 231753Z AUTO 30009KT 280V350 10SM CLR 21/09 A3008 RMK AO2 SLP183 T02110094 10211 20100 58007


Station Type Date Time Source
KANB Decoded METAR 2021/09/23 17:53 UTC NOAA

ANNISTON METRO AIRPORT, AL, United States (KANB) 33-35N 085-51W 183M
Sep 23, 2021 - 01:53 PM EDT / 2021.09.23 1753 UTC
Wind: from the WNW (300 degrees) at 10 MPH (9 KT) (direction variable):0
Visibility: 10 mile(s):0
Sky conditions: clear
Temperature: 70.0 F (21.1 C)
Dew Point: 48.9 F (9.4 C)
Relative Humidity: 47%
Pressure (altimeter): 30.08 in. Hg (1018 hPa)
Pressure tendency: 0.02 inches (0.7 hPa) lower than three hours ago
ob: KANB 231753Z AUTO 30009KT 280V350 10SM CLR 21/09 A3008 RMK AO2 SLP183 T02110094 10211 20100 58007
cycle: 18

Station Type Date Time Source
KANB TAF 2021/09/23 18:22 UTC NOAA

TAF KANB 231720Z 2318/2418 34011KT P6SM SKC
FM240000 34004KT P6SM SKC

Example: see airport list